Time;durP1;ratioP1;P1;durP2;ratioP2;P2;SDS_P1;SDS_P2;PMS_P1;PMS_P2;Temp;Humidity;BMP_temperature;BMP_pressure;BME280_temperature;BME280_humidity;BME280_pressure;Samples;Min_cycle;Max_cycle;Signal;HPM_P1;HPM_P2
2022/01/02 00:00:41;;;;;;;5.20;2.17;;;11.20;99.90;;;;;;5043135;28;20043;-61
2022/01/02 00:03:08;;;;;;;6.90;2.47;;;11.20;99.90;;;;;;5038543;28;20041;-62
2022/01/02 00:05:38;;;;;;;7.22;2.08;;;11.10;99.90;;;;;;5039342;28;20033;-62
2022/01/02 00:08:05;;;;;;;6.40;2.40;;;11.10;99.90;;;;;;5036259;28;20041;-62
2022/01/02 00:10:47;;;;;;;10.23;3.28;;;11.10;99.90;;;;;;5037839;28;20043;-62
2022/01/02 00:13:21;;;;;;;9.07;2.35;;;11.10;99.90;;;;;;5033849;28;20034;-62
2022/01/02 00:15:47;;;;;;;7.40;3.22;;;11.10;99.90;;;;;;5033578;28;20037;-62
2022/01/02 00:18:16;;;;;;;7.00;3.05;;;11.10;99.90;;;;;;5038974;28;20435;-62
2022/01/02 00:20:47;;;;;;;6.70;2.60;;;11.10;99.90;;;;;;5032906;28;20739;-62
2022/01/02 00:23:19;;;;;;;6.22;2.65;;;11.10;99.90;;;;;;5033766;28;20080;-61
2022/01/02 00:25:50;;;;;;;5.05;2.53;;;11.10;99.90;;;;;;5035503;28;20574;-62
2022/01/02 00:28:17;;;;;;;10.18;3.00;;;11.10;99.90;;;;;;5040179;28;20426;-61
2022/01/02 00:30:45;;;;;;;8.68;2.78;;;11.10;99.90;;;;;;5040224;28;20044;-62
2022/01/02 00:33:11;;;;;;;9.18;2.80;;;11.10;99.90;;;;;;5032925;28;20037;-61
2022/01/02 00:35:38;;;;;;;11.07;3.38;;;11.10;99.90;;;;;;5039655;28;20459;-61
2022/01/02 00:38:07;;;;;;;13.07;3.35;;;11.00;99.90;;;;;;5037979;28;20052;-61
2022/01/02 00:40:41;;;;;;;14.95;3.15;;;11.00;99.90;;;;;;5038926;28;20480;-61
2022/01/02 00:43:12;;;;;;;9.15;3.08;;;11.00;99.90;;;;;;5036427;28;20049;-61
2022/01/02 00:45:45;;;;;;;7.97;3.13;;;11.00;99.90;;;;;;5036643;28;20640;-61
2022/01/02 00:48:32;;;;;;;13.05;2.80;;;11.00;99.90;;;;;;5034815;28;20167;-62
2022/01/02 00:51:03;;;;;;;14.32;3.28;;;11.00;99.90;;;;;;5040735;28;20044;-61
2022/01/02 00:53:34;;;;;;;12.80;2.90;;;11.00;99.90;;;;;;5042074;28;20021;-61
2022/01/02 00:56:00;;;;;;;12.20;3.40;;;11.00;99.90;;;;;;5042585;28;20033;-61
2022/01/02 00:58:45;;;;;;;10.20;2.80;;;11.00;99.90;;;;;;5042729;28;20024;-61
2022/01/02 01:01:15;;;;;;;8.70;2.60;;;11.00;99.90;;;;;;5036604;28;20037;-62
2022/01/02 01:03:41;;;;;;;12.83;3.13;;;11.00;99.90;;;;;;5036602;28;20655;-61
2022/01/02 01:06:10;;;;;;;9.52;3.20;;;11.00;99.90;;;;;;5043792;28;20275;-62
2022/01/02 01:08:36;;;;;;;8.40;2.50;;;11.00;99.90;;;;;;5040346;28;20026;-61
2022/01/02 01:11:08;;;;;;;4.65;2.58;;;11.10;99.90;;;;;;5042847;28;20505;-62
2022/01/02 01:13:34;;;;;;;9.15;2.80;;;11.00;99.90;;;;;;5040720;28;20026;-61
2022/01/02 01:16:02;;;;;;;10.45;3.42;;;11.00;99.90;;;;;;5042408;28;20397;-61
2022/01/02 01:18:27;;;;;;;10.77;2.97;;;11.00;99.90;;;;;;5041776;28;20091;-61
2022/01/02 01:20:54;;;;;;;7.32;2.72;;;11.10;99.90;;;;;;5040826;28;20420;-62
2022/01/02 01:23:20;;;;;;;8.88;2.80;;;11.10;99.90;;;;;;5041264;28;20021;-61
2022/01/02 01:25:49;;;;;;;12.93;2.58;;;11.10;99.90;;;;;;5040184;28;20056;-61
2022/01/02 01:28:16;;;;;;;10.93;2.72;;;11.20;99.90;;;;;;5042661;28;20021;-61
2022/01/02 01:30:43;;;;;;;9.70;2.90;;;11.10;99.90;;;;;;5039288;28;20053;-62
2022/01/02 01:33:09;;;;;;;9.15;3.15;;;11.10;99.90;;;;;;5043600;28;20033;-62
2022/01/02 01:35:34;;;;;;;8.68;2.47;;;11.10;99.90;;;;;;5039914;28;20055;-62
2022/01/02 01:38:01;;;;;;;10.57;2.83;;;11.20;99.90;;;;;;5042519;28;20119;-61
2022/01/02 01:40:31;;;;;;;12.20;2.70;;;11.10;99.90;;;;;;5041039;28;20442;-61
2022/01/02 01:42:59;;;;;;;8.48;2.45;;;11.10;99.90;;;;;;5039697;28;20037;-61
2022/01/02 01:45:29;;;;;;;8.35;3.00;;;11.10;99.90;;;;;;5041626;28;20033;-61
2022/01/02 01:47:57;;;;;;;11.00;2.83;;;11.10;99.90;;;;;;5040934;28;20029;-63
2022/01/02 01:50:26;;;;;;;11.80;2.83;;;11.20;99.90;;;;;;5041035;28;20068;-61
2022/01/02 01:52:52;;;;;;;10.68;2.70;;;11.20;99.90;;;;;;5041172;28;20032;-60
2022/01/02 01:55:18;;;;;;;9.82;2.70;;;11.20;99.90;;;;;;5040604;28;20034;-61
2022/01/02 01:57:45;;;;;;;9.63;3.17;;;11.20;99.90;;;;;;5041621;28;20041;-61
2022/01/02 02:00:14;;;;;;;16.27;2.72;;;11.20;99.90;;;;;;5038989;28;20082;-61
2022/01/02 02:02:40;;;;;;;12.80;2.75;;;11.20;99.90;;;;;;5042479;28;20036;-61
2022/01/02 02:05:06;;;;;;;16.73;2.50;;;11.30;99.90;;;;;;5039504;28;20041;-62
2022/01/02 02:07:40;;;;;;;9.40;2.35;;;11.30;99.90;;;;;;5041955;28;20029;-61
2022/01/02 02:10:18;;;;;;;9.70;2.60;;;11.40;99.90;;;;;;5034011;28;20037;-63
2022/01/02 02:12:46;;;;;;;13.70;3.08;;;11.30;99.90;;;;;;5036775;28;20037;-61
2022/01/02 02:15:14;;;;;;;12.55;2.65;;;11.30;99.90;;;;;;5042077;28;20512;-61
2022/01/02 02:17:42;;;;;;;10.60;2.78;;;11.40;99.90;;;;;;5038988;28;20034;-61
2022/01/02 02:20:15;;;;;;;13.77;2.60;;;11.40;99.90;;;;;;5042483;28;20045;-61
2022/01/02 02:22:45;;;;;;;8.82;2.80;;;11.40;99.90;;;;;;5035789;28;20505;-61
2022/01/02 02:25:12;;;;;;;9.25;2.63;;;11.50;99.90;;;;;;5042302;28;20807;-61
2022/01/02 02:27:37;;;;;;;13.98;2.67;;;11.50;99.90;;;;;;5038294;28;20281;-61
2022/01/02 02:30:06;;;;;;;10.13;2.47;;;11.60;99.90;;;;;;5039733;28;20124;-61
2022/01/02 02:32:33;;;;;;;14.27;2.60;;;11.60;99.90;;;;;;5041029;28;20501;-61
2022/01/02 02:34:58;;;;;;;13.98;2.33;;;11.60;99.90;;;;;;5035949;28;20045;-62
2022/01/02 02:37:25;;;;;;;6.70;1.95;;;11.60;99.90;;;;;;5039625;28;20044;-62
2022/01/02 02:39:51;;;;;;;8.20;2.72;;;11.70;99.90;;;;;;5039480;28;20553;-62
2022/01/02 02:42:36;;;;;;;9.05;2.72;;;11.70;99.90;;;;;;5036607;28;20037;-62
2022/01/02 02:50:47;;;;;;;11.25;2.47;;;11.70;99.90;;;;;;5035333;28;20140;-62
2022/01/02 02:53:14;;;;;;;12.48;2.33;;;11.80;99.90;;;;;;5041210;28;20029;-61
2022/01/02 02:55:45;;;;;;;6.50;1.75;;;11.70;99.90;;;;;;5038439;28;20057;-62
2022/01/02 02:58:39;;;;;;;8.75;1.67;;;11.70;99.90;;;;;;5039955;28;20652;-62
2022/01/02 03:00:57;;;;;;;4.85;1.42;;;11.70;99.90;;;;;;5040407;28;20079;-62
2022/01/02 03:03:22;;;;;;;7.47;2.55;;;11.80;99.90;;;;;;5039559;28;20447;-62
2022/01/02 03:05:48;;;;;;;8.43;1.90;;;11.80;99.90;;;;;;5039562;28;20037;-61
2022/01/02 03:08:14;;;;;;;11.35;1.80;;;11.80;99.90;;;;;;5040273;28;20481;-62
2022/01/02 03:10:40;;;;;;;7.88;1.70;;;11.90;99.90;;;;;;5037394;28;20175;-62
2022/01/02 03:13:05;;;;;;;8.60;2.10;;;11.90;99.90;;;;;;5041668;28;20116;-62
2022/01/02 03:15:31;;;;;;;8.25;1.88;;;12.00;99.90;;;;;;5037818;28;20041;-64
2022/01/02 03:17:56;;;;;;;9.32;2.00;;;12.00;99.90;;;;;;5041074;28;20138;-61
2022/01/02 03:20:22;;;;;;;8.15;2.20;;;12.10;99.90;;;;;;5038893;28;20040;-61
2022/01/02 03:22:48;;;;;;;13.95;2.22;;;12.10;99.90;;;;;;5039457;28;20489;-61
2022/01/02 03:25:14;;;;;;;10.10;2.08;;;12.10;99.90;;;;;;5040346;28;20079;-61
2022/01/02 03:27:40;;;;;;;9.57;1.92;;;12.10;99.90;;;;;;5037904;28;20034;-62
2022/01/02 03:30:07;;;;;;;8.18;2.05;;;12.20;99.90;;;;;;5040888;28;20029;-62
2022/01/02 03:32:33;;;;;;;14.82;2.17;;;12.20;99.90;;;;;;5037534;28;20033;-63
2022/01/02 03:34:59;;;;;;;12.48;1.67;;;12.10;99.90;;;;;;5041607;28;20074;-62
2022/01/02 03:37:28;;;;;;;11.30;2.00;;;12.10;99.90;;;;;;5038721;28;20393;-61
2022/01/02 03:39:55;;;;;;;26.58;2.38;;;12.10;99.90;;;;;;5040060;28;20033;-62
2022/01/02 03:42:20;;;;;;;11.18;2.70;;;12.00;99.90;;;;;;5038154;28;20034;-61
2022/01/02 03:44:46;;;;;;;11.52;2.10;;;12.00;99.90;;;;;;5039693;28;20063;-62
2022/01/02 03:47:11;;;;;;;7.40;1.70;;;12.00;99.90;;;;;;5038732;28;20037;-62
2022/01/02 03:49:37;;;;;;;6.22;2.05;;;12.10;99.90;;;;;;5039845;28;20041;-62
2022/01/02 03:52:03;;;;;;;11.07;2.17;;;12.00;99.90;;;;;;5037569;28;20396;-61
2022/01/02 03:54:29;;;;;;;7.38;1.45;;;12.00;99.90;;;;;;5033869;28;20043;-62
2022/01/02 03:56:55;;;;;;;16.92;3.22;;;12.00;99.90;;;;;;5036427;28;20025;-63
2022/01/02 03:59:21;;;;;;;11.50;1.80;;;11.90;99.90;;;;;;5039500;28;20033;-62
2022/01/02 04:01:46;;;;;;;5.53;1.88;;;12.00;99.90;;;;;;5037143;28;20056;-62
2022/01/02 04:04:12;;;;;;;6.15;1.65;;;12.00;99.90;;;;;;5037816;28;20092;-62
2022/01/02 04:06:37;;;;;;;8.05;2.03;;;12.00;99.90;;;;;;5039714;28;20048;-62
2022/01/02 04:09:03;;;;;;;6.25;1.60;;;12.00;99.90;;;;;;5037326;28;20055;-61
2022/01/02 04:11:29;;;;;;;16.48;2.60;;;12.00;99.90;;;;;;5040516;28;20048;-62
2022/01/02 04:13:54;;;;;;;12.93;1.75;;;12.00;99.90;;;;;;5037219;28;20029;-62
2022/01/02 04:16:20;;;;;;;10.45;1.58;;;12.00;99.90;;;;;;5039622;28;20037;-62
2022/01/02 04:18:45;;;;;;;6.72;1.20;;;12.00;99.90;;;;;;5036977;28;20033;-62
2022/01/02 04:21:11;;;;;;;10.45;2.03;;;12.10;99.90;;;;;;5038525;28;20108;-62
2022/01/02 04:23:38;;;;;;;7.00;1.83;;;12.10;99.90;;;;;;5043526;28;20106;-62
2022/01/02 04:26:04;;;;;;;9.68;1.52;;;12.00;99.90;;;;;;5041332;28;20088;-61
2022/01/02 04:28:30;;;;;;;6.55;2.47;;;12.00;99.90;;;;;;5044727;28;20021;-62
2022/01/02 04:30:55;;;;;;;6.80;1.30;;;12.00;99.90;;;;;;5040446;28;20552;-62
2022/01/02 04:33:21;;;;;;;5.85;1.77;;;12.00;99.90;;;;;;5044155;28;20037;-62
2022/01/02 04:35:46;;;;;;;7.70;2.38;;;12.00;99.90;;;;;;5041868;28;20036;-62
2022/01/02 04:38:13;;;;;;;6.75;1.52;;;12.10;99.90;;;;;;5042792;28;20067;-62
2022/01/02 04:40:39;;;;;;;10.07;1.67;;;12.10;99.90;;;;;;5042731;28;20048;-62
2022/01/02 04:43:05;;;;;;;8.40;1.73;;;12.00;99.90;;;;;;5042741;28;20037;-61
2022/01/02 04:45:31;;;;;;;8.20;2.30;;;12.00;99.90;;;;;;5040676;28;20037;-62
2022/01/02 04:47:56;;;;;;;12.85;2.20;;;12.00;99.90;;;;;;5042806;28;20040;-62
2022/01/02 04:50:23;;;;;;;13.27;2.17;;;12.00;99.90;;;;;;5040876;28;20401;-61
2022/01/02 04:52:48;;;;;;;8.95;2.08;;;12.00;99.90;;;;;;5041397;28;20159;-62
2022/01/02 04:55:14;;;;;;;6.88;2.08;;;11.90;99.90;;;;;;5042197;28;20123;-61
2022/01/02 04:57:39;;;;;;;8.63;2.05;;;11.90;99.90;;;;;;5040475;28;20037;-62
2022/01/02 05:00:06;;;;;;;9.68;1.90;;;11.90;99.90;;;;;;5041093;28;20033;-62
2022/01/02 05:02:32;;;;;;;9.10;2.00;;;11.90;99.90;;;;;;5043230;28;20530;-61
2022/01/02 05:04:58;;;;;;;14.65;2.03;;;11.90;99.90;;;;;;5040711;28;20056;-61
2022/01/02 05:07:23;;;;;;;6.15;1.80;;;11.80;99.90;;;;;;5043940;28;20053;-61
2022/01/02 05:09:49;;;;;;;13.30;2.58;;;11.80;99.90;;;;;;5040519;28;20188;-61
2022/01/02 05:12:14;;;;;;;7.97;2.03;;;11.80;99.90;;;;;;5042550;28;20022;-61
2022/01/02 05:14:40;;;;;;;4.20;1.65;;;11.80;99.90;;;;;;5041176;28;20040;-61
2022/01/02 05:17:06;;;;;;;11.35;2.08;;;11.80;99.90;;;;;;5041433;28;20389;-61
2022/01/02 05:19:32;;;;;;;7.43;2.25;;;11.80;99.90;;;;;;5042739;28;20166;-61
2022/01/02 05:21:58;;;;;;;13.18;3.17;;;11.70;99.90;;;;;;5040368;28;20501;-60
2022/01/02 05:24:23;;;;;;;5.15;1.45;;;11.70;99.90;;;;;;5036390;28;20470;-61
2022/01/02 05:26:50;;;;;;;9.98;2.25;;;11.70;99.90;;;;;;5040088;28;20113;-61
2022/01/02 05:29:17;;;;;;;7.18;1.88;;;11.70;99.90;;;;;;5042794;28;20407;-62
2022/01/02 05:31:42;;;;;;;7.20;1.92;;;11.70;99.90;;;;;;5041152;28;20021;-62
2022/01/02 05:34:08;;;;;;;11.15;2.10;;;11.70;99.90;;;;;;5040743;28;20038;-62
2022/01/02 05:36:34;;;;;;;9.95;2.25;;;11.70;99.90;;;;;;5042213;28;20033;-62
2022/01/02 05:39:00;;;;;;;9.82;1.77;;;11.70;99.90;;;;;;5040180;28;20042;-64
2022/01/02 05:41:30;;;;;;;11.77;2.40;;;11.70;99.90;;;;;;5041467;28;20056;-65
2022/01/02 05:43:56;;;;;;;6.30;1.75;;;11.70;99.90;;;;;;5035754;28;20117;-61
2022/01/02 05:46:22;;;;;;;9.80;1.60;;;11.70;99.90;;;;;;5045259;28;20552;-61
2022/01/02 05:48:50;;;;;;;5.57;1.42;;;11.70;99.90;;;;;;5043405;28;20063;-62
2022/01/02 05:51:16;;;;;;;7.95;1.55;;;11.80;99.90;;;;;;5044331;28;20041;-61
2022/01/02 05:53:41;;;;;;;7.85;1.98;;;11.80;99.90;;;;;;5040417;28;20030;-61
2022/01/02 05:56:07;;;;;;;6.95;1.90;;;11.80;99.90;;;;;;5042489;28;20059;-62
2022/01/02 05:58:33;;;;;;;7.68;2.17;;;11.80;99.90;;;;;;5042104;28;20025;-62
2022/01/02 06:00:58;;;;;;;7.55;1.75;;;11.80;99.90;;;;;;5045058;28;20503;-62
2022/01/02 06:03:24;;;;;;;13.45;1.77;;;11.80;99.90;;;;;;5042901;28;20029;-61
2022/01/02 06:05:49;;;;;;;7.15;1.73;;;11.80;99.90;;;;;;5039092;28;20030;-62
2022/01/02 06:08:15;;;;;;;10.10;2.10;;;11.80;99.90;;;;;;5042154;28;20370;-61
2022/01/02 06:10:41;;;;;;;5.53;1.65;;;11.70;99.90;;;;;;5040067;28;20382;-61
2022/01/02 06:13:07;;;;;;;13.35;2.15;;;11.70;99.90;;;;;;5041153;28;20041;-61
2022/01/02 06:15:32;;;;;;;11.55;2.15;;;11.70;99.90;;;;;;5040867;28;20041;-61
2022/01/02 06:17:58;;;;;;;6.30;1.45;;;11.70;99.90;;;;;;5039575;28;20038;-62
2022/01/02 06:20:24;;;;;;;9.40;2.38;;;11.80;99.90;;;;;;5042572;28;20040;-60
2022/01/02 06:22:50;;;;;;;7.70;1.50;;;11.80;99.90;;;;;;5038755;28;20089;-60
2022/01/02 06:25:16;;;;;;;4.47;1.30;;;11.80;99.90;;;;;;5039094;28;20036;-61
2022/01/02 06:27:42;;;;;;;4.60;1.75;;;11.70;99.90;;;;;;5040526;28;20045;-60
2022/01/02 06:30:08;;;;;;;8.40;1.38;;;11.80;99.90;;;;;;5040508;28;20098;-61
2022/01/02 06:32:34;;;;;;;5.80;1.73;;;11.70;99.90;;;;;;5040078;28;20061;-61
2022/01/02 06:35:00;;;;;;;4.95;1.67;;;11.70;99.90;;;;;;5041154;28;20110;-61
2022/01/02 06:37:26;;;;;;;4.20;1.23;;;11.80;99.90;;;;;;5037801;28;20041;-62
2022/01/02 06:39:51;;;;;;;2.15;1.30;;;11.80;99.90;;;;;;5041801;28;20044;-61
2022/01/02 06:42:17;;;;;;;13.02;2.28;;;11.80;99.90;;;;;;5038175;28;20547;-61
2022/01/02 06:44:43;;;;;;;5.60;1.80;;;11.80;99.90;;;;;;5038810;28;20055;-62
2022/01/02 06:47:08;;;;;;;6.38;1.15;;;11.80;99.90;;;;;;5040255;28;20379;-61
2022/01/02 06:49:34;;;;;;;3.30;1.45;;;11.70;99.90;;;;;;5040355;28;20041;-62
2022/01/02 06:52:00;;;;;;;4.82;1.33;;;11.60;99.90;;;;;;5039835;28;20029;-61
2022/01/02 06:54:26;;;;;;;5.53;1.40;;;11.70;99.90;;;;;;5042612;28;20025;-61
2022/01/02 06:56:51;;;;;;;7.65;2.13;;;11.60;99.90;;;;;;5037922;28;20044;-61
2022/01/02 06:59:17;;;;;;;9.80;1.65;;;11.50;99.90;;;;;;5043240;28;20106;-62
2022/01/02 07:01:43;;;;;;;5.43;1.30;;;11.50;99.90;;;;;;5039076;28;20041;-64
2022/01/02 07:04:09;;;;;;;5.95;1.77;;;11.50;99.90;;;;;;5042196;28;20080;-62
2022/01/02 07:06:34;;;;;;;7.00;2.15;;;11.50;99.90;;;;;;5042330;28;20033;-62
2022/01/02 07:09:00;;;;;;;11.70;1.45;;;11.50;99.90;;;;;;5041732;28;20041;-62
2022/01/02 07:11:26;;;;;;;5.22;2.13;;;11.40;99.90;;;;;;5043045;28;20021;-63
2022/01/02 07:13:52;;;;;;;6.88;1.40;;;11.40;99.90;;;;;;5038071;28;20037;-62
2022/01/02 07:16:17;;;;;;;3.53;1.70;;;11.50;99.90;;;;;;5038639;28;20374;-61
2022/01/02 07:18:43;;;;;;;7.38;1.55;;;11.60;99.90;;;;;;5041064;28;20025;-62
2022/01/02 07:21:08;;;;;;;6.93;1.30;;;11.60;99.90;;;;;;5039364;28;20801;-62
2022/01/02 07:23:34;;;;;;;10.15;1.60;;;11.70;99.90;;;;;;5039591;28;20057;-62
2022/01/02 07:26:00;;;;;;;5.53;1.33;;;11.70;99.90;;;;;;5040144;28;20029;-62
2022/01/02 07:28:25;;;;;;;5.82;1.35;;;11.80;99.90;;;;;;5038436;28;20038;-62
2022/01/02 07:30:51;;;;;;;5.93;1.73;;;11.80;99.90;;;;;;5036208;28;20037;-62
2022/01/02 07:33:16;;;;;;;5.10;1.60;;;11.80;99.90;;;;;;5037534;28;20032;-62
2022/01/02 07:35:42;;;;;;;5.68;1.20;;;11.70;99.90;;;;;;5037442;28;20443;-61
2022/01/02 07:38:08;;;;;;;5.72;1.70;;;11.70;99.90;;;;;;5037043;28;20048;-62
2022/01/02 07:40:33;;;;;;;5.15;1.45;;;11.60;99.90;;;;;;5036766;28;20029;-62
2022/01/02 07:42:59;;;;;;;6.95;1.33;;;11.60;99.90;;;;;;5037096;28;20117;-61
2022/01/02 07:45:24;;;;;;;4.10;1.40;;;11.60;99.90;;;;;;5040994;28;20029;-61
2022/01/02 07:47:50;;;;;;;7.78;2.03;;;11.60;99.90;;;;;;5037548;28;20021;-61
2022/01/02 07:50:18;;;;;;;4.13;1.20;;;11.60;99.90;;;;;;5040970;28;20114;-61
2022/01/02 07:52:43;;;;;;;11.10;1.70;;;11.60;99.90;;;;;;5037382;28;20022;-61
2022/01/02 07:55:09;;;;;;;5.90;1.25;;;11.60;99.90;;;;;;5038780;28;20484;-62
2022/01/02 07:57:35;;;;;;;7.05;1.73;;;11.60;99.90;;;;;;5038285;28;20044;-62
2022/01/02 08:00:01;;;;;;;5.55;1.80;;;11.60;99.90;;;;;;5038721;28;20040;-62
2022/01/02 08:02:26;;;;;;;8.63;2.08;;;11.60;99.90;;;;;;5041497;28;20360;-61
2022/01/02 08:04:52;;;;;;;10.40;1.45;;;11.60;99.90;;;;;;5037627;28;20036;-61
2022/01/02 08:07:17;;;;;;;6.55;1.00;;;11.50;99.90;;;;;;5041006;28;20037;-61
2022/01/02 08:09:43;;;;;;;5.72;1.40;;;11.50;99.90;;;;;;5037198;28;20817;-61
2022/01/02 08:12:08;;;;;;;3.83;0.98;;;11.50;99.90;;;;;;5039959;28;20543;-61
2022/01/02 08:14:34;;;;;;;7.40;1.52;;;11.40;99.90;;;;;;5037751;28;20049;-61
2022/01/02 08:17:00;;;;;;;8.70;2.05;;;11.40;99.90;;;;;;5037515;28;20044;-64
2022/01/02 08:19:25;;;;;;;6.50;1.10;;;11.50;99.90;;;;;;5039318;28;20029;-61
2022/01/02 08:21:51;;;;;;;5.53;1.25;;;11.40;99.90;;;;;;5035738;28;20124;-61
2022/01/02 08:24:16;;;;;;;11.07;2.13;;;11.40;99.90;;;;;;5040743;28;20603;-61
2022/01/02 08:26:42;;;;;;;3.33;1.75;;;11.50;99.90;;;;;;5036322;28;20033;-61
2022/01/02 08:29:07;;;;;;;3.95;1.30;;;11.50;99.90;;;;;;5040142;28;20029;-61
2022/01/02 08:31:33;;;;;;;10.00;1.58;;;11.50;99.90;;;;;;5037746;28;20036;-61
2022/01/02 08:33:59;;;;;;;5.45;1.85;;;11.60;99.90;;;;;;5038912;28;20420;-62
2022/01/02 08:36:25;;;;;;;5.63;1.60;;;11.60;99.90;;;;;;5039602;28;20025;-61
2022/01/02 08:38:51;;;;;;;8.30;2.28;;;11.60;99.90;;;;;;5037198;28;20371;-60
2022/01/02 08:41:17;;;;;;;8.48;1.85;;;11.60;99.90;;;;;;5026334;28;20042;-61
2022/01/02 08:43:43;;;;;;;5.38;1.52;;;11.70;99.90;;;;;;5028301;28;20036;-61
2022/01/02 08:46:09;;;;;;;5.20;1.48;;;11.70;99.90;;;;;;5035989;28;20564;-61
2022/01/02 08:48:35;;;;;;;5.22;2.05;;;11.70;99.90;;;;;;5036520;28;20116;-61
2022/01/02 08:51:01;;;;;;;4.68;1.40;;;11.70;99.90;;;;;;5040112;28;20108;-61
2022/01/02 08:53:31;;;;;;;7.25;1.45;;;11.70;99.90;;;;;;5031929;28;20445;-61
2022/01/02 08:55:56;;;;;;;2.83;1.45;;;11.70;99.90;;;;;;5028207;28;20470;-62
2022/01/02 08:58:22;;;;;;;2.22;1.30;;;11.70;99.90;;;;;;5027852;28;20083;-61
2022/01/02 09:00:48;;;;;;;7.43;1.58;;;11.70;99.90;;;;;;5035091;28;20048;-61
2022/01/02 09:03:13;;;;;;;3.60;1.55;;;11.70;99.90;;;;;;5032383;28;20056;-61
2022/01/02 09:05:39;;;;;;;4.18;1.73;;;11.70;99.90;;;;;;5031412;28;20132;-62
2022/01/02 09:08:05;;;;;;;6.88;1.77;;;11.70;99.90;;;;;;5031508;28;20692;-61
2022/01/02 09:10:31;;;;;;;4.82;1.63;;;11.70;99.90;;;;;;5036585;28;20045;-61
2022/01/02 09:12:56;;;;;;;11.95;2.33;;;11.60;99.90;;;;;;5036758;28;20037;-61
2022/01/02 09:15:22;;;;;;;4.57;1.85;;;11.60;99.90;;;;;;5036569;28;20038;-60
2022/01/02 09:17:48;;;;;;;4.85;1.70;;;11.60;99.90;;;;;;5037185;28;20037;-62
2022/01/02 09:20:14;;;;;;;4.05;1.35;;;11.60;99.90;;;;;;5035991;28;20083;-60
2022/01/02 09:22:40;;;;;;;6.07;1.88;;;11.70;99.90;;;;;;5031394;28;20124;-61
2022/01/02 09:25:08;;;;;;;2.90;1.45;;;11.70;99.90;;;;;;5040694;28;20608;-62
2022/01/02 09:27:35;;;;;;;4.25;1.70;;;11.80;99.90;;;;;;5036897;28;20143;-60
2022/01/02 09:30:02;;;;;;;3.88;1.60;;;11.90;99.90;;;;;;5041119;28;20453;-61
2022/01/02 09:32:28;;;;;;;7.18;1.70;;;12.10;99.90;;;;;;5040865;28;20037;-60
2022/01/02 09:34:54;;;;;;;7.55;1.92;;;12.10;99.90;;;;;;5038712;28;20095;-62
2022/01/02 09:37:19;;;;;;;3.38;1.58;;;12.00;99.90;;;;;;5042418;28;20030;-62
2022/01/02 09:39:45;;;;;;;6.00;2.03;;;12.10;99.90;;;;;;5041482;28;20025;-63
2022/01/02 09:42:12;;;;;;;5.72;1.80;;;12.10;99.90;;;;;;5038481;28;20052;-61
2022/01/02 09:44:37;;;;;;;6.00;1.73;;;12.10;99.90;;;;;;5038807;28;20037;-62
2022/01/02 09:47:04;;;;;;;8.02;1.95;;;12.10;99.90;;;;;;5038202;28;20103;-62
2022/01/02 09:49:31;;;;;;;10.23;2.53;;;12.10;99.90;;;;;;5040959;28;20037;-61
2022/01/02 09:51:57;;;;;;;6.03;2.13;;;12.00;99.90;;;;;;5039354;28;20785;-62
2022/01/02 09:54:22;;;;;;;7.75;1.73;;;12.00;99.90;;;;;;5040302;28;20051;-62
2022/01/02 09:56:48;;;;;;;7.15;2.10;;;12.00;99.90;;;;;;5040820;28;20548;-61
2022/01/02 09:59:13;;;;;;;5.68;1.88;;;12.10;99.90;;;;;;5039173;28;20033;-63
2022/01/02 10:01:39;;;;;;;6.65;1.63;;;12.10;99.90;;;;;;5041565;28;20070;-61
2022/01/02 10:04:05;;;;;;;5.38;1.77;;;12.10;99.90;;;;;;5038733;28;20029;-61
2022/01/02 10:06:41;;;;;;;3.88;1.65;;;12.10;99.90;;;;;;5038426;28;20050;-61
2022/01/02 10:09:15;;;;;;;7.82;2.20;;;12.20;99.90;;;;;;5034350;28;20421;-62
2022/01/02 10:11:41;;;;;;;7.50;2.20;;;12.20;99.90;;;;;;5034556;28;20041;-62
2022/01/02 10:14:09;;;;;;;6.47;2.20;;;12.30;99.90;;;;;;5042023;28;20439;-62
2022/01/02 10:16:37;;;;;;;4.70;1.50;;;12.20;99.90;;;;;;5037592;28;20172;-61
2022/01/02 10:19:29;;;;;;;9.05;2.08;;;12.20;99.90;;;;;;5041615;28;20037;-61
2022/01/02 10:22:00;;;;;;;6.55;1.98;;;12.20;99.90;;;;;;5038054;28;20069;-62
2022/01/02 10:24:28;;;;;;;6.70;2.20;;;12.30;99.90;;;;;;5037948;28;20076;-62
2022/01/02 10:27:02;;;;;;;5.65;2.30;;;12.30;99.90;;;;;;5039896;28;20036;-61
2022/01/02 10:29:37;;;;;;;6.60;1.90;;;12.40;99.90;;;;;;5043288;28;20076;-62
2022/01/02 10:32:21;;;;;;;6.15;2.00;;;12.40;99.90;;;;;;5032821;28;20116;-62
2022/01/02 10:34:48;;;;;;;4.10;1.88;;;12.40;99.90;;;;;;5027640;28;20044;-63
2022/01/02 10:37:26;;;;;;;8.23;2.20;;;12.40;99.90;;;;;;5032033;28;20087;-62
2022/01/02 10:39:52;;;;;;;6.78;1.80;;;12.40;99.90;;;;;;5036175;28;20568;-62
2022/01/02 10:42:19;;;;;;;13.85;2.55;;;12.30;99.90;;;;;;5039212;28;20068;-62
2022/01/02 10:44:45;;;;;;;8.98;2.45;;;12.30;99.90;;;;;;5031592;28;20037;-61
2022/01/02 10:47:21;;;;;;;6.85;1.50;;;12.30;99.90;;;;;;5026879;28;20029;-61
2022/01/02 10:49:50;;;;;;;9.40;2.15;;;12.20;99.90;;;;;;5037380;28;20048;-61
2022/01/02 10:52:30;;;;;;;4.35;2.08;;;12.20;99.90;;;;;;5038105;28;20734;-61
2022/01/02 10:54:59;;;;;;;4.97;1.70;;;12.10;99.90;;;;;;5039228;28;20036;-61
2022/01/02 10:57:24;;;;;;;9.27;1.80;;;12.00;99.90;;;;;;5034634;28;20041;-61
2022/01/02 10:59:55;;;;;;;5.18;2.13;;;12.00;99.90;;;;;;5035250;28;20654;-64
2022/01/02 11:02:23;;;;;;;10.50;2.33;;;12.00;99.90;;;;;;5040961;28;20140;-61
2022/01/02 11:04:57;;;;;;;5.25;1.70;;;12.00;99.90;;;;;;5039757;28;20466;-61
2022/01/02 11:07:24;;;;;;;8.52;1.98;;;12.00;99.90;;;;;;5040116;28;20029;-61
2022/01/02 11:09:56;;;;;;;11.15;2.33;;;12.10;99.90;;;;;;5039152;28;20515;-62
2022/01/02 11:12:22;;;;;;;6.10;1.70;;;12.10;99.90;;;;;;5030774;28;20477;-61
2022/01/02 11:14:50;;;;;;;11.50;3.00;;;12.10;99.90;;;;;;5039375;28;20036;-61
2022/01/02 11:17:16;;;;;;;8.65;2.00;;;12.20;99.90;;;;;;5038953;28;20087;-61
2022/01/02 11:19:43;;;;;;;6.75;2.17;;;12.20;99.90;;;;;;5040092;28;20040;-61
2022/01/02 11:22:17;;;;;;;4.30;1.50;;;12.30;99.90;;;;;;5037697;28;20030;-61
2022/01/02 11:25:09;;;;;;;7.35;1.58;;;12.40;99.90;;;;;;5040294;28;20032;-61
2022/01/02 11:27:41;;;;;;;15.02;2.33;;;12.40;99.90;;;;;;5030757;28;20064;-62
2022/01/02 11:30:26;;;;;;;17.20;2.15;;;12.40;99.90;;;;;;5034634;28;20044;-62
2022/01/02 11:33:03;;;;;;;7.00;2.08;;;12.50;99.90;;;;;;5041589;28;20075;-61
2022/01/02 11:35:33;;;;;;;11.13;2.85;;;12.50;99.90;;;;;;5042039;28;20558;-63
2022/01/02 11:38:03;;;;;;;10.85;1.63;;;12.60;99.90;;;;;;5047407;28;20071;-62
2022/01/02 11:40:49;;;;;;;12.37;1.93;;;12.70;99.90;;;;;;5052754;28;20052;-62
2022/01/02 11:44:10;;;;;;;11.55;2.15;;;12.70;99.90;;;;;;5038219;28;20052;-61
2022/01/02 11:46:52;;;;;;;16.52;1.77;;;12.70;99.90;;;;;;5035575;28;20079;-62
2022/01/02 11:49:42;;;;;;;14.40;2.70;;;12.80;99.90;;;;;;5032639;28;20140;-63
2022/01/02 11:52:22;;;;;;;;;;;12.70;99.90;;;;;;5034332;28;20505;-61
2022/01/02 11:54:52;;;;;;;17.90;1.88;;;12.80;99.90;;;;;;5038575;28;19916;-63
2022/01/02 11:57:18;;;;;;;;;;;12.80;99.90;;;;;;5037083;28;20047;-62
2022/01/02 11:59:47;;;;;;;13.38;2.38;;;12.70;99.90;;;;;;5038455;28;20685;-62
2022/01/02 12:02:18;;;;;;;13.40;2.35;;;12.70;99.90;;;;;;5039929;28;20389;-63
2022/01/02 12:05:14;;;;;;;6.93;1.40;;;12.70;99.90;;;;;;5040867;28;20051;-62
2022/01/02 12:07:50;;;;;;;12.98;2.45;;;12.70;99.90;;;;;;5035178;28;20472;-61
2022/01/02 12:10:23;;;;;;;9.95;1.17;;;12.70;99.90;;;;;;5039151;28;20041;-62
2022/01/02 12:13:10;;;;;;;16.42;2.85;;;12.90;99.90;;;;;;5035439;28;20541;-62
2022/01/02 12:15:38;;;;;;;11.88;1.60;;;13.00;99.90;;;;;;5035446;28;20076;-63
2022/01/02 12:18:03;;;;;;;9.60;1.35;;;13.10;99.90;;;;;;5034736;28;20053;-62
2022/01/02 12:20:29;;;;;;;8.13;1.25;;;13.10;99.90;;;;;;5036318;28;20041;-63
2022/01/02 12:22:55;;;;;;;7.28;1.85;;;13.10;99.90;;;;;;5034925;28;20377;-62
2022/01/02 12:25:23;;;;;;;11.02;1.30;;;13.10;99.90;;;;;;5036261;28;20061;-63
2022/01/02 12:27:51;;;;;;;15.00;1.40;;;13.00;99.90;;;;;;5034170;28;20034;-62
2022/01/02 12:30:18;;;;;;;8.90;1.35;;;13.10;99.90;;;;;;5035421;28;20496;-63
2022/01/02 12:32:46;;;;;;;7.80;1.40;;;13.10;99.90;;;;;;5035586;28;20034;-62
2022/01/02 12:35:11;;;;;;;10.32;2.03;;;13.00;99.90;;;;;;5035099;28;20038;-63
2022/01/02 12:37:37;;;;;;;7.55;1.30;;;13.10;99.90;;;;;;5037630;28;20041;-63
2022/01/02 12:40:11;;;;;;;12.65;1.30;;;13.00;99.90;;;;;;5030531;28;20041;-63
2022/01/02 12:42:37;;;;;;;9.15;1.83;;;13.00;99.90;;;;;;5022277;28;20036;-62
2022/01/02 12:45:05;;;;;;;8.10;1.30;;;13.00;99.90;;;;;;5032661;28;20029;-63
2022/01/02 12:47:31;;;;;;;6.30;1.10;;;13.00;99.90;;;;;;5030742;28;20057;-63
2022/01/02 12:49:57;;;;;;;11.82;1.52;;;13.00;99.90;;;;;;5033784;28;20067;-62
2022/01/02 12:52:25;;;;;;;7.13;1.02;;;13.10;99.90;;;;;;5034067;28;20044;-62